Time;durP1;ratioP1;P1;durP2;ratioP2;P2;SDS_P1;SDS_P2;PMS_P1;PMS_P2;Temp;Humidity;BMP_temperature;BMP_pressure;BME280_temperature;BME280_humidity;BME280_pressure;Samples;Min_cycle;Max_cycle;Signal;HPM_P1;HPM_P2
2021/12/06 00:00:57;;;;;;;30.60;16.65;;;;;;;6.58;70.68;94159.47;5050940;28;20184;-65
2021/12/06 00:03:38;;;;;;;27.80;15.98;;;;;;;6.71;70.01;94153.84;5037050;28;20606;-64
2021/12/06 00:06:06;;;;;;;27.80;16.67;;;;;;;6.32;71.23;94164.69;5039638;28;20207;-65
2021/12/06 00:08:33;;;;;;;29.00;16.50;;;;;;;6.56;70.54;94156.34;5038577;28;20208;-65
2021/12/06 00:11:06;;;;;;;29.00;17.87;;;;;;;6.10;71.75;94151.75;5041516;28;20450;-64
2021/12/06 00:13:38;;;;;;;29.60;17.25;;;;;;;6.53;70.69;94140.44;5042377;28;20476;-64
2021/12/06 00:16:09;;;;;;;25.73;15.35;;;;;;;6.55;70.34;94139.13;5029564;28;20177;-65
2021/12/06 00:18:37;;;;;;;27.35;15.98;;;;;;;6.55;70.12;94149.53;5030394;28;20209;-65
2021/12/06 00:21:05;;;;;;;26.25;15.88;;;;;;;6.52;69.42;94155.25;5030668;28;20193;-66
2021/12/06 00:23:32;;;;;;;24.40;15.20;;;;;;;6.29;70.33;94126.16;5030340;28;20202;-66
2021/12/06 00:26:00;;;;;;;25.33;15.40;;;;;;;6.58;69.36;94159.47;5044517;28;20434;-65
2021/12/06 00:28:28;;;;;;;24.75;15.38;;;;;;;6.18;70.86;94166.13;5070249;28;20432;-64
2021/12/06 00:30:56;;;;;;;25.67;15.57;;;;;;;5.78;72.25;94184.66;5070387;28;20573;-66
2021/12/06 00:33:25;;;;;;;25.40;16.42;;;;;;;6.04;71.78;94195.13;5046902;28;20212;-65
2021/12/06 00:35:56;;;;;;;28.33;15.63;;;;;;;6.07;71.52;94199.06;5041794;28;20631;-64
2021/12/06 00:38:25;;;;;;;27.20;16.13;;;;;;;5.74;73.16;94178.38;5039028;28;20237;-64
2021/12/06 00:40:52;;;;;;;26.33;16.30;;;;;;;5.82;73.59;94201.34;5041400;28;20199;-65
2021/12/06 00:43:19;;;;;;;27.50;16.55;;;;;;;6.05;72.45;94167.31;5048375;28;20447;-65
2021/12/06 00:45:46;;;;;;;26.08;16.02;;;;;;;6.12;72.60;94170.50;5049842;28;20184;-64
2021/12/06 00:48:13;;;;;;;26.10;16.17;;;;;;;6.37;71.42;94188.94;5041129;28;20220;-65
2021/12/06 00:50:42;;;;;;;27.75;16.40;;;;;;;6.49;70.86;94176.56;5053868;28;20757;-64
2021/12/06 00:53:09;;;;;;;25.98;15.35;;;;;;;6.40;71.25;94185.88;5039956;28;20204;-65
2021/12/06 00:55:37;;;;;;;26.83;15.40;;;;;;;6.22;71.18;94217.44;5040954;28;20187;-65
2021/12/06 00:58:05;;;;;;;25.13;15.47;;;;;;;6.22;71.84;94159.41;5038349;28;20200;-65
2021/12/06 01:00:41;;;;;;;25.48;16.10;;;;;;;6.41;71.47;94178.81;5048625;28;20431;-64
2021/12/06 01:03:16;;;;;;;26.83;16.02;;;;;;;6.31;71.65;94170.94;5040741;28;20258;-65
2021/12/06 01:05:44;;;;;;;26.85;15.65;;;;;;;6.35;71.39;94153.81;5052938;28;20188;-65
2021/12/06 01:08:11;;;;;;;26.55;16.25;;;;;;;6.28;71.99;94159.19;5040324;28;20192;-65
2021/12/06 01:10:40;;;;;;;30.25;16.48;;;;;;;6.23;72.49;94163.56;5050118;28;20585;-65
2021/12/06 01:13:07;;;;;;;27.98;16.02;;;;;;;6.25;72.88;94156.31;5049150;28;20271;-65
2021/12/06 01:15:36;;;;;;;29.73;16.33;;;;;;;6.07;72.87;94167.84;5049618;28;20237;-65
2021/12/06 01:18:06;;;;;;;26.73;16.03;;;;;;;6.16;72.50;94176.78;5044124;28;20976;-65
2021/12/06 01:20:41;;;;;;;28.92;16.33;;;;;;;6.12;72.93;94166.09;5038905;28;20451;-63
2021/12/06 01:23:12;;;;;;;26.35;15.27;;;;;;;6.13;72.65;94182.47;5047607;28;20204;-64
2021/12/06 01:25:58;;;;;;;26.65;15.90;;;;;;;6.39;71.56;94165.28;5049723;28;20188;-63
2021/12/06 01:31:03;;;;;;;30.00;17.07;;;;;;;6.06;73.35;94158.47;5038199;28;20188;-63
2021/12/06 01:33:53;;;;;;;26.43;16.63;;;;;;;6.40;72.52;94152.03;5035897;28;20984;-64
2021/12/06 01:41:36;;;;;;;34.72;20.48;;;;;;;6.27;72.37;94147.22;5038794;28;20969;-63
2021/12/06 01:44:12;;;;;;;34.63;21.35;;;;;;;6.21;72.07;94127.41;5047964;28;20296;-63
2021/12/06 01:46:57;;;;;;;33.00;19.40;;;;;;;6.23;71.87;94151.34;5042125;28;20196;-63
2021/12/06 01:49:28;;;;;;;41.60;26.75;;;;;;;6.41;71.28;94104.16;5051926;28;20536;-64
2021/12/06 01:51:59;;;;;;;41.20;25.60;;;;;;;6.25;72.36;94128.47;5051657;28;20196;-64
2021/12/06 01:54:29;;;;;;;44.35;26.75;;;;;;;6.33;71.40;94125.44;5051960;28;20667;-64
2021/12/06 01:56:56;;;;;;;42.08;25.92;;;;;;;6.03;72.24;94125.16;5051791;28;20649;-65
2021/12/06 01:59:42;;;;;;;39.85;24.10;;;;;;;6.10;72.42;94123.94;5049356;28;20199;-65
2021/12/06 02:02:10;;;;;;;39.50;22.67;;;;;;;6.23;71.87;94104.53;5036470;28;20293;-64
2021/12/06 02:04:40;;;;;;;36.03;21.83;;;;;;;6.24;71.89;94116.50;5045768;28;20222;-64
2021/12/06 02:07:12;;;;;;;34.85;21.15;;;;;;;6.17;71.93;94128.91;5052652;28;20191;-64
2021/12/06 02:09:43;;;;;;;35.75;21.38;;;;;;;6.35;71.70;94123.34;5051992;28;20268;-64
2021/12/06 02:12:12;;;;;;;31.05;19.10;;;;;;;6.29;71.81;94119.16;5051282;28;20199;-64
2021/12/06 02:17:14;;;;;;;34.20;20.70;;;;;;;6.34;72.01;94127.00;5020480;28;20326;-63
2021/12/06 02:19:49;;;;;;;34.33;21.30;;;;;;;6.53;71.39;94138.59;5022624;28;20205;-64
2021/12/06 02:22:24;;;;;;;33.67;19.73;;;;;;;6.40;71.53;94141.63;5032748;28;20529;-64
2021/12/06 02:24:53;;;;;;;39.33;23.63;;;;;;;6.24;71.95;94124.28;5032702;28;20435;-63
2021/12/06 02:27:26;;;;;;;36.90;22.20;;;;;;;6.40;71.91;94136.44;5031029;28;20502;-64
2021/12/06 02:29:56;;;;;;;33.13;21.10;;;;;;;6.47;71.48;94154.41;5029078;28;20666;-65
2021/12/06 02:32:24;;;;;;;35.75;20.52;;;;;;;6.15;72.55;94136.19;5038964;28;20429;-65
2021/12/06 02:34:54;;;;;;;36.50;21.52;;;;;;;6.40;71.89;94120.81;5054768;28;20330;-66
2021/12/06 02:37:30;;;;;;;36.67;21.15;;;;;;;6.45;71.69;94138.28;5029582;28;20207;-65
2021/12/06 02:40:04;;;;;;;33.20;20.80;;;;;;;6.23;72.18;94104.53;5031559;28;20204;-65
2021/12/06 02:42:31;;;;;;;35.17;20.90;;;;;;;6.25;72.22;94107.66;5030558;28;20447;-65
2021/12/06 02:44:59;;;;;;;39.42;21.48;;;;;;;6.49;71.71;94103.72;5030910;28;20193;-65
2021/12/06 02:47:26;;;;;;;39.60;21.33;;;;;;;6.15;72.76;94107.56;5038880;28;20338;-65
2021/12/06 02:49:53;;;;;;;45.77;25.90;;;;;;;6.31;71.96;94117.09;5051554;28;20287;-65
2021/12/06 02:52:20;;;;;;;42.20;24.67;;;;;;;5.95;72.64;94105.56;5051786;28;20446;-65
2021/12/06 02:54:55;;;;;;;43.17;25.17;;;;;;;6.07;72.06;94121.84;5050867;28;20470;-65
2021/12/06 02:57:33;;;;;;;45.17;26.33;;;;;;;5.91;72.56;94095.94;5050503;28;20538;-65
2021/12/06 03:00:07;;;;;;;50.63;26.55;;;;;;;6.08;72.50;94109.59;5049048;28;20235;-65
2021/12/06 03:02:34;;;;;;;47.45;27.67;;;;;;;6.03;72.97;94114.75;5036266;28;20209;-63
2021/12/06 03:05:04;;;;;;;45.88;26.25;;;;;;;6.14;72.45;94121.63;5055525;28;20949;-68
2021/12/06 03:07:36;;;;;;;41.83;26.02;;;;;;;6.08;72.58;94117.41;5040145;28;20197;-65
2021/12/06 03:10:08;;;;;;;47.67;26.67;;;;;;;6.02;72.79;94115.78;5041528;28;20204;-65
2021/12/06 03:12:35;;;;;;;43.72;26.23;;;;;;;6.37;71.42;94126.50;5042354;28;20275;-64
2021/12/06 03:15:05;;;;;;;41.45;26.25;;;;;;;6.38;71.00;94112.47;5051406;28;20639;-65
2021/12/06 03:17:33;;;;;;;45.38;26.65;;;;;;;6.48;70.61;94115.13;5062130;28;20269;-65
2021/12/06 03:20:06;;;;;;;48.15;26.55;;;;;;;6.53;70.48;94109.97;5052516;28;20200;-64
2021/12/06 03:22:36;;;;;;;44.88;27.45;;;;;;;6.40;70.34;94102.59;5049785;28;20203;-65
2021/12/06 03:25:08;;;;;;;48.25;26.85;;;;;;;6.56;70.10;94099.06;5049815;28;20200;-64
2021/12/06 03:27:36;;;;;;;43.42;25.60;;;;;;;6.15;71.57;94112.78;5050085;28;20231;-66
2021/12/06 03:30:08;;;;;;;47.22;26.73;;;;;;;6.43;70.57;94115.09;5049801;28;20200;-64
2021/12/06 03:32:35;;;;;;;46.10;25.65;;;;;;;6.41;71.10;94106.75;5048697;28;20287;-64
2021/12/06 03:35:06;;;;;;;41.95;24.70;;;;;;;6.54;70.16;94124.56;5049119;28;20691;-64
2021/12/06 03:37:34;;;;;;;44.55;25.17;;;;;;;6.61;70.08;94101.72;5049256;28;20188;-65
2021/12/06 03:40:02;;;;;;;44.38;25.58;;;;;;;6.72;69.89;94118.97;5049783;28;20193;-64
2021/12/06 03:42:30;;;;;;;42.60;26.00;;;;;;;6.75;69.56;94102.84;5049298;28;20199;-64
2021/12/06 03:44:57;;;;;;;44.00;25.65;;;;;;;6.55;70.45;94102.69;5049722;28;20676;-65
2021/12/06 03:47:30;;;;;;;39.00;24.15;;;;;;;6.62;71.10;94098.09;5059931;28;20231;-64
2021/12/06 03:49:59;;;;;;;41.27;25.33;;;;;;;6.75;70.40;94095.03;5052409;28;20303;-65
2021/12/06 03:52:28;;;;;;;42.72;24.48;;;;;;;6.77;70.24;94090.34;5049013;28;20489;-64
2021/12/06 03:54:58;;;;;;;44.60;25.60;;;;;;;6.86;69.71;94083.63;5049286;28;20224;-64
2021/12/06 03:57:25;;;;;;;44.00;25.80;;;;;;;6.65;70.53;94094.97;5050498;28;20443;-64
2021/12/06 03:59:53;;;;;;;43.50;25.33;;;;;;;6.69;70.69;94098.66;5050757;28;20272;-64
2021/12/06 04:02:24;;;;;;;40.40;24.67;;;;;;;6.88;70.19;94112.81;5049964;28;20188;-64
2021/12/06 04:04:53;;;;;;;43.97;26.02;;;;;;;6.78;70.54;94106.78;5048470;28;20699;-64
2021/12/06 04:07:23;;;;;;;44.63;26.98;;;;;;;6.77;70.38;94098.16;5048872;28;20188;-65
2021/12/06 04:09:51;;;;;;;41.03;26.80;;;;;;;6.78;70.67;94102.34;5048690;28;20200;-64
2021/12/06 04:12:18;;;;;;;49.22;31.60;;;;;;;6.64;70.37;94096.00;5050189;28;20862;-65
2021/12/06 04:14:47;;;;;;;45.83;29.33;;;;;;;6.72;70.62;94095.53;5049168;28;20235;-65
2021/12/06 04:17:18;;;;;;;46.35;27.92;;;;;;;6.86;69.96;94099.25;5048038;28;20192;-66
2021/12/06 04:19:47;;;;;;;47.55;27.85;;;;;;;7.03;69.95;94110.31;5050720;28;20582;-65
2021/12/06 04:22:16;;;;;;;46.50;28.17;;;;;;;6.97;69.82;94106.09;5049731;28;20619;-65
2021/12/06 04:24:44;;;;;;;44.85;27.33;;;;;;;6.93;69.59;94089.41;5049085;28;20433;-64
2021/12/06 04:27:16;;;;;;;44.35;28.25;;;;;;;6.86;70.54;94082.88;5048972;28;20262;-65
2021/12/06 04:29:50;;;;;;;41.33;27.30;;;;;;;7.07;69.22;94094.97;5049011;28;20207;-64
2021/12/06 04:32:21;;;;;;;45.03;28.23;;;;;;;6.86;70.33;94088.84;5048738;28;20459;-65
2021/12/06 04:34:48;;;;;;;43.73;25.83;;;;;;;6.76;70.50;94088.81;5050771;28;20602;-65
2021/12/06 04:37:16;;;;;;;39.30;26.13;;;;;;;6.81;70.10;94107.06;5048764;28;20451;-64
2021/12/06 04:39:44;;;;;;;37.97;24.50;;;;;;;7.04;69.24;94109.25;5048522;28;20542;-64
2021/12/06 04:42:11;;;;;;;39.83;24.58;;;;;;;7.07;69.61;94111.38;5048070;28;20881;-64
2021/12/06 04:44:39;;;;;;;38.72;24.15;;;;;;;6.59;70.61;94102.97;5049180;28;20235;-63
2021/12/06 04:47:07;;;;;;;40.60;24.87;;;;;;;6.78;70.37;94094.53;5038796;28;20242;-64
2021/12/06 04:49:34;;;;;;;40.50;25.53;;;;;;;6.40;71.97;94104.41;5039442;28;20439;-64
2021/12/06 04:52:06;;;;;;;38.77;24.47;;;;;;;6.49;72.13;94103.72;5033021;28;20435;-64
2021/12/06 04:54:37;;;;;;;39.00;24.40;;;;;;;6.54;71.62;94105.56;5039202;28;20490;-66
2021/12/06 04:57:30;;;;;;;43.13;25.80;;;;;;;6.49;72.32;94114.13;5047926;28;20202;-65
2021/12/06 05:00:11;;;;;;;39.33;25.17;;;;;;;6.68;71.86;94110.06;5048124;28;20477;-64
2021/12/06 05:02:40;;;;;;;37.90;24.23;;;;;;;6.73;71.56;94110.09;5039952;28;20450;-64
2021/12/06 05:05:20;;;;;;;39.33;23.77;;;;;;;6.58;71.36;94102.22;5042700;28;20469;-65
2021/12/06 05:07:54;;;;;;;44.03;24.38;;;;;;;6.51;71.89;94111.25;5047860;28;20215;-65
2021/12/06 05:10:22;;;;;;;40.63;24.83;;;;;;;6.28;72.81;94101.97;5049703;28;20196;-64
2021/12/06 05:12:50;;;;;;;41.60;25.50;;;;;;;6.10;74.26;94110.13;5048517;28;20188;-64
2021/12/06 05:15:20;;;;;;;40.63;25.15;;;;;;;6.40;72.96;94126.03;5047960;28;20494;-63
2021/12/06 05:17:47;;;;;;;38.65;25.20;;;;;;;6.48;72.67;94122.94;5047545;28;20687;-64
2021/12/06 05:20:16;;;;;;;39.83;23.83;;;;;;;6.20;73.39;94118.03;5047586;28;20185;-64
2021/12/06 05:22:46;;;;;;;40.25;25.38;;;;;;;6.69;71.42;94119.47;5045284;28;20204;-64
2021/12/06 05:25:14;;;;;;;39.22;24.40;;;;;;;6.66;71.44;94132.97;5047416;28;20196;-64
2021/12/06 05:27:43;;;;;;;40.60;26.00;;;;;;;6.80;71.17;94128.13;5046855;28;20244;-63
2021/12/06 05:30:14;;;;;;;38.67;23.63;;;;;;;6.72;71.47;94131.97;5047167;28;20431;-68
2021/12/06 05:32:43;;;;;;;39.67;23.58;;;;;;;6.67;71.75;94131.94;5046692;28;20508;-64
2021/12/06 05:35:12;;;;;;;39.72;23.70;;;;;;;6.80;70.75;94131.53;5048408;28;20301;-63
2021/12/06 05:37:42;;;;;;;36.88;23.15;;;;;;;6.92;70.14;94119.09;5048712;28;20581;-63
2021/12/06 05:40:14;;;;;;;36.17;21.50;;;;;;;6.95;70.56;94102.97;5048105;28;20192;-65
2021/12/06 05:42:41;;;;;;;34.20;21.53;;;;;;;6.86;70.51;94112.28;5036495;28;20443;-64
2021/12/06 05:45:10;;;;;;;63.15;42.97;;;;;;;6.82;71.71;94108.63;5047045;28;20439;-67
2021/12/06 05:47:37;;;;;;;35.30;21.27;;;;;;;6.61;72.10;94106.91;5046978;28;20810;-64
2021/12/06 05:50:06;;;;;;;32.72;20.85;;;;;;;6.72;71.91;94110.38;5048304;28;20435;-62
2021/12/06 05:52:33;;;;;;;38.63;24.70;;;;;;;6.55;71.93;94123.50;5048942;28;20172;-64
2021/12/06 05:55:01;;;;;;;37.10;24.63;;;;;;;6.58;72.60;94117.84;5049215;28;20220;-64
2021/12/06 05:57:28;;;;;;;39.07;26.47;;;;;;;6.70;71.32;94115.03;5049061;28;20443;-65
2021/12/06 05:59:55;;;;;;;78.10;54.70;;;;;;;6.70;70.82;94118.44;5048655;28;20439;-64
2021/12/06 06:02:22;;;;;;;98.13;66.25;;;;;;;6.88;71.08;94117.22;5048469;28;20521;-65
2021/12/06 06:04:50;;;;;;;37.73;22.60;;;;;;;6.66;71.30;94127.00;5048448;28;20346;-66
2021/12/06 06:07:16;;;;;;;69.80;51.97;;;;;;;6.74;71.72;94106.50;5048465;28;20991;-64
2021/12/06 06:09:44;;;;;;;32.87;20.57;;;;;;;6.76;72.03;94127.06;5048614;28;20493;-63
2021/12/06 06:12:11;;;;;;;32.45;21.08;;;;;;;6.38;72.85;94138.50;5048343;28;20423;-65
2021/12/06 06:14:38;;;;;;;26.48;17.55;;;;;;;6.78;71.90;94128.38;5048351;28;20687;-67
2021/12/06 06:17:11;;;;;;;38.93;25.60;;;;;;;6.95;71.69;94134.22;5047935;28;20181;-62
2021/12/06 06:19:45;;;;;;;70.20;42.93;;;;;;;7.01;71.60;94124.59;5048098;28;20447;-64
2021/12/06 06:22:12;;;;;;;28.43;19.30;;;;;;;6.92;71.62;94103.47;5048498;28;20549;-65
2021/12/06 06:24:40;;;;;;;26.60;17.40;;;;;;;7.01;72.01;94088.94;5048470;28;20512;-65
2021/12/06 06:27:07;;;;;;;94.40;64.67;;;;;;;7.45;71.18;94118.06;5048549;28;20439;-66
2021/12/06 06:29:35;;;;;;;27.90;17.80;;;;;;;7.13;72.15;94125.97;5048122;28;20517;-67
2021/12/06 06:32:04;;;;;;;26.80;15.60;;;;;;;6.85;73.62;94141.19;5047742;28;20961;-66
2021/12/06 06:34:32;;;;;;;23.20;14.70;;;;;;;7.13;73.65;94146.81;5051608;28;20426;-66
2021/12/06 06:36:59;;;;;;;24.10;15.80;;;;;;;7.33;72.45;94145.38;5051780;28;20790;-65
2021/12/06 06:39:27;;;;;;;22.80;14.80;;;;;;;7.50;72.88;94153.81;5051951;28;20446;-67
2021/12/06 06:41:55;;;;;;;21.27;14.37;;;;;;;7.57;72.58;94154.38;5051512;28;20442;-66
2021/12/06 06:44:22;;;;;;;21.23;14.27;;;;;;;7.72;71.37;94159.66;5052354;28;20442;-66
2021/12/06 06:46:50;;;;;;;20.43;13.73;;;;;;;7.69;71.75;94171.34;5052770;28;20546;-66
2021/12/06 06:49:19;;;;;;;21.00;14.50;;;;;;;7.82;71.14;94160.47;5051956;28;20573;-67
2021/12/06 06:51:46;;;;;;;21.13;14.53;;;;;;;7.31;73.89;94142.25;5052686;28;20469;-66
2021/12/06 06:54:14;;;;;;;20.50;13.70;;;;;;;7.45;73.59;94132.91;5051598;28;20496;-67
2021/12/06 06:56:42;;;;;;;19.67;13.37;;;;;;;7.69;71.93;94165.34;5052591;28;20945;-67
2021/12/06 06:59:09;;;;;;;19.80;13.10;;;;;;;7.88;71.60;94169.09;5052251;28;20510;-65
2021/12/06 07:01:36;;;;;;;18.37;12.37;;;;;;;7.91;70.69;94163.34;5052247;28;20431;-66
2021/12/06 07:04:08;;;;;;;17.60;11.57;;;;;;;8.09;70.52;94165.50;5051762;28;20435;-66
2021/12/06 07:06:35;;;;;;;17.13;11.70;;;;;;;7.84;71.38;94152.38;5051977;28;20439;-64
2021/12/06 07:09:02;;;;;;;17.53;12.03;;;;;;;8.39;70.47;94141.31;5051252;28;20423;-66
2021/12/06 07:11:29;;;;;;;16.60;11.57;;;;;;;7.97;71.52;94157.88;5052359;28;20439;-66
2021/12/06 07:13:57;;;;;;;16.20;11.53;;;;;;;8.25;70.99;94143.63;5051617;28;20435;-67
2021/12/06 07:16:26;;;;;;;16.63;10.87;;;;;;;8.19;71.65;94136.81;5052054;28;20486;-66
2021/12/06 07:18:53;;;;;;;13.93;10.10;;;;;;;8.38;69.87;94143.13;5051786;28;20435;-66
2021/12/06 07:21:21;;;;;;;14.80;10.30;;;;;;;8.38;69.68;94132.69;5051662;28;20512;-66
2021/12/06 07:23:48;;;;;;;14.70;10.00;;;;;;;8.26;70.23;94140.00;5051187;28;20427;-67
2021/12/06 07:26:19;;;;;;;14.50;10.27;;;;;;;8.17;69.84;94146.72;5051825;28;20438;-68
2021/12/06 07:28:48;;;;;;;16.40;10.57;;;;;;;8.29;69.23;94139.47;5051214;28;20445;-65
2021/12/06 07:31:15;;;;;;;15.63;9.83;;;;;;;8.29;69.83;94136.84;5051400;28;20446;-65
2021/12/06 07:33:44;;;;;;;14.67;10.17;;;;;;;8.43;69.22;94140.50;5051055;28;20949;-67
2021/12/06 07:36:20;;;;;;;14.57;10.10;;;;;;;8.17;68.86;94133.69;5051254;28;20467;-65
2021/12/06 07:38:47;;;;;;;13.27;9.57;;;;;;;8.11;69.08;94147.75;5051670;28;20439;-66
2021/12/06 07:41:17;;;;;;;15.13;9.70;;;;;;;7.52;70.62;94175.19;5051678;28;20439;-66
2021/12/06 07:43:45;;;;;;;14.03;9.60;;;;;;;7.83;70.32;94163.81;5050482;28;20435;-66
2021/12/06 07:46:12;;;;;;;16.13;10.53;;;;;;;7.96;69.89;94165.97;5051426;28;20961;-68
2021/12/06 07:48:40;;;;;;;14.57;9.97;;;;;;;7.97;69.61;94141.47;5050557;28;20504;-67
2021/12/06 07:51:08;;;;;;;14.80;9.43;;;;;;;7.96;68.96;94160.75;5051581;28;21023;-66
2021/12/06 07:53:38;;;;;;;17.10;10.43;;;;;;;7.97;69.53;94131.03;5050378;28;20423;-66
2021/12/06 07:56:06;;;;;;;14.40;10.00;;;;;;;8.25;70.26;94156.66;5051023;28;20862;-67
2021/12/06 07:58:33;;;;;;;14.23;9.00;;;;;;;8.36;69.66;94158.25;5051009;28;20427;-67
2021/12/06 08:01:00;;;;;;;13.07;9.30;;;;;;;8.21;69.38;94142.56;5051536;28;20449;-66
2021/12/06 08:03:30;;;;;;;14.17;9.53;;;;;;;8.36;70.02;94132.16;5050581;28;20435;-67
2021/12/06 08:05:59;;;;;;;15.17;9.70;;;;;;;8.04;71.20;94115.91;5050860;28;20431;-68
2021/12/06 08:08:29;;;;;;;13.57;9.50;;;;;;;8.15;70.09;94118.28;5050798;28;20826;-67
2021/12/06 08:11:04;;;;;;;15.17;9.70;;;;;;;8.21;69.76;94143.34;5051146;28;20428;-67
2021/12/06 08:13:34;;;;;;;13.83;9.37;;;;;;;8.33;69.30;94130.06;5050236;28;20533;-67
2021/12/06 08:16:06;;;;;;;11.23;8.23;;;;;;;8.41;69.71;94137.38;5051518;28;20482;-66
2021/12/06 08:18:33;;;;;;;13.03;8.80;;;;;;;8.52;68.58;94149.41;5050412;28;20449;-66
2021/12/06 08:21:00;;;;;;;13.13;8.80;;;;;;;8.50;67.99;94156.72;5050597;28;20932;-67
2021/12/06 08:23:28;;;;;;;14.20;8.67;;;;;;;8.55;67.89;94143.69;5050060;28;20961;-66
2021/12/06 08:25:56;;;;;;;13.33;8.27;;;;;;;8.30;68.08;94146.25;5050885;28;20439;-66
2021/12/06 08:28:24;;;;;;;14.40;9.00;;;;;;;8.52;68.39;94151.25;5050066;28;20457;-68
2021/12/06 08:30:53;;;;;;;13.67;8.60;;;;;;;8.50;68.95;94146.28;5051075;28;20523;-67
2021/12/06 08:33:21;;;;;;;10.47;7.77;;;;;;;8.61;68.03;94140.00;5050251;28;20957;-67
2021/12/06 08:35:52;;;;;;;13.33;9.00;;;;;;;8.63;69.09;94130.09;5051046;28;20903;-67
2021/12/06 08:38:22;;;;;;;14.43;10.43;;;;;;;8.82;68.66;94138.97;5050410;28;20824;-68
2021/12/06 08:40:50;;;;;;;23.43;15.47;;;;;;;8.72;69.12;94143.41;5050992;28;20435;-67
2021/12/06 08:43:19;;;;;;;16.00;10.63;;;;;;;8.60;68.59;94135.84;5050021;28;20450;-68
2021/12/06 08:46:00;;;;;;;17.43;11.97;;;;;;;8.64;69.39;94118.59;5050752;28;20446;-67
2021/12/06 08:48:31;;;;;;;19.03;12.97;;;;;;;8.94;68.77;94113.34;5049758;28;20830;-68
2021/12/06 08:51:01;;;;;;;16.87;11.80;;;;;;;8.64;68.11;94121.22;5049897;28;20450;-66
2021/12/06 08:53:29;;;;;;;47.70;34.63;;;;;;;8.67;68.05;94118.06;5049527;28;20449;-66
2021/12/06 08:55:57;;;;;;;23.20;16.10;;;;;;;8.90;67.28;94101.88;5049556;28;20478;-65
2021/12/06 08:58:24;;;;;;;73.57;57.37;;;;;;;8.90;67.31;94116.75;5049752;28;20884;-67
2021/12/06 09:00:51;;;;;;;37.97;24.20;;;;;;;9.29;66.91;94111.72;5050433;28;20983;-67
2021/12/06 09:03:19;;;;;;;28.27;19.37;;;;;;;9.48;66.56;94115.31;5048769;28;20467;-68
2021/12/06 09:05:51;;;;;;;17.67;11.13;;;;;;;9.48;65.59;94123.16;5050068;28;20444;-67
2021/12/06 09:08:19;;;;;;;38.70;26.77;;;;;;;9.53;64.92;94120.50;5049695;28;20968;-66
2021/12/06 09:10:50;;;;;;;74.53;50.03;;;;;;;9.72;64.41;94105.81;5050149;28;20431;-68
2021/12/06 09:13:19;;;;;;;19.60;12.43;;;;;;;9.81;64.49;94106.81;5049795;28;20525;-69
2021/12/06 09:15:46;;;;;;;17.80;10.83;;;;;;;9.96;64.57;94101.50;5049779;28;20505;-66
2021/12/06 09:18:13;;;;;;;63.17;41.83;;;;;;;10.24;64.75;94094.81;5049179;28;20508;-67
2021/12/06 09:20:44;;;;;;;15.83;10.67;;;;;;;10.28;64.38;94085.34;5049377;28;20961;-67
2021/12/06 09:23:12;;;;;;;13.20;9.00;;;;;;;10.28;63.04;94093.19;5049383;28;20436;-67
2021/12/06 09:25:42;;;;;;;11.53;8.23;;;;;;;10.21;63.08;94093.53;5049492;28;20501;-67
2021/12/06 09:28:11;;;;;;;13.47;7.73;;;;;;;10.27;61.49;94075.94;5049295;28;20439;-66
2021/12/06 09:30:38;;;;;;;12.63;7.90;;;;;;;9.86;62.67;94085.84;5049887;28;20454;-68
2021/12/06 09:33:09;;;;;;;10.77;7.53;;;;;;;9.71;64.09;94083.28;5048876;28;20430;-67
2021/12/06 09:35:41;;;;;;;14.53;10.00;;;;;;;9.90;63.05;94079.03;5049267;28;20471;-67
2021/12/06 09:38:08;;;;;;;10.50;7.70;;;;;;;10.03;61.86;94070.56;5048919;28;20446;-68
2021/12/06 09:40:40;;;;;;;12.90;7.93;;;;;;;9.70;62.35;94079.91;5049539;28;20507;-67
2021/12/06 09:43:09;;;;;;;13.03;8.60;;;;;;;9.61;62.76;94093.81;5049393;28;20438;-67
2021/12/06 09:45:37;;;;;;;10.17;7.90;;;;;;;9.58;62.64;94089.13;5049284;28;20492;-66
2021/12/06 09:48:06;;;;;;;11.50;8.57;;;;;;;9.52;62.64;94087.59;5048659;28;20637;-68
2021/12/06 09:50:41;;;;;;;12.40;8.80;;;;;;;9.82;62.64;94090.03;5048507;28;20439;-69
2021/12/06 09:53:11;;;;;;;13.13;9.13;;;;;;;9.64;62.36;94072.34;5049459;28;20456;-67
2021/12/06 09:55:40;;;;;;;14.70;10.23;;;;;;;9.37;64.48;94061.47;5048966;28;20589;-69
2021/12/06 09:58:08;;;;;;;15.10;10.63;;;;;;;9.45;64.28;94060.94;5048926;28;20817;-68
2021/12/06 10:00:41;;;;;;;13.70;9.87;;;;;;;9.92;62.71;94054.16;5049376;28;20434;-67
2021/12/06 10:03:11;;;;;;;14.27;10.10;;;;;;;10.30;60.65;94050.00;5048772;28;20432;-66
2021/12/06 10:05:38;;;;;;;13.77;9.93;;;;;;;10.48;60.79;94046.72;5049393;28;20478;-68
2021/12/06 10:08:06;;;;;;;14.13;10.10;;;;;;;10.14;61.36;94040.69;5051049;28;20435;-67
2021/12/06 10:10:33;;;;;;;19.07;12.40;;;;;;;9.96;62.77;94033.47;5053352;28;20484;-68
2021/12/06 10:13:00;;;;;;;19.17;12.43;;;;;;;9.91;62.64;94020.38;5053172;28;20442;-69
2021/12/06 10:15:29;;;;;;;18.97;12.90;;;;;;;9.96;63.26;94018.53;5052468;28;20504;-68
2021/12/06 10:18:00;;;;;;;19.43;12.70;;;;;;;10.10;63.09;94013.50;5052380;28;20805;-68
2021/12/06 10:20:30;;;;;;;18.23;12.43;;;;;;;10.22;62.49;93985.13;5052810;28;20443;-69
2021/12/06 10:22:58;;;;;;;15.97;10.37;;;;;;;10.05;62.20;94006.41;5052861;28;20536;-69
2021/12/06 10:25:36;;;;;;;17.63;11.13;;;;;;;10.05;63.64;93989.97;5052447;28;20438;-68
2021/12/06 10:28:12;;;;;;;18.13;11.93;;;;;;;10.30;62.83;93997.63;5052593;28;20443;-67
2021/12/06 10:30:45;;;;;;;16.07;11.73;;;;;;;9.88;62.87;93990.34;5052807;28;20445;-67
2021/12/06 10:33:15;;;;;;;17.27;11.83;;;;;;;10.27;62.69;93992.16;5052719;28;20925;-66
2021/12/06 10:35:50;;;;;;;17.93;11.87;;;;;;;10.54;62.06;93980.13;5052580;28;20467;-68
2021/12/06 10:38:28;;;;;;;14.13;10.10;;;;;;;10.19;63.17;93969.97;5052740;28;20473;-67
2021/12/06 10:40:58;;;;;;;16.73;10.00;;;;;;;10.45;62.68;93984.41;5052779;28;20435;-68
2021/12/06 10:43:26;;;;;;;14.13;10.13;;;;;;;10.50;62.54;93971.25;5052756;28;20445;-69
2021/12/06 10:45:55;;;;;;;15.40;9.73;;;;;;;10.11;62.97;93973.16;5052381;28;20924;-67
2021/12/06 10:48:26;;;;;;;15.07;10.67;;;;;;;10.40;62.56;93971.34;5052355;28;20553;-69
2021/12/06 10:50:53;;;;;;;15.90;11.23;;;;;;;10.27;62.94;93966.78;5052297;28;20435;-69
2021/12/06 10:53:23;;;;;;;16.90;12.10;;;;;;;10.23;64.02;93965.75;5052090;28;20443;-67
2021/12/06 10:55:53;;;;;;;17.63;11.77;;;;;;;10.39;63.72;93969.78;5052686;28;20465;-68
2021/12/06 10:58:23;;;;;;;17.20;10.90;;;;;;;10.33;63.51;93970.88;5052125;28;21023;-68
2021/12/06 11:01:04;;;;;;;16.57;11.33;;;;;;;10.46;63.51;93962.38;5052459;28;20450;-68
2021/12/06 11:03:36;;;;;;;16.50;10.53;;;;;;;10.17;64.41;93965.03;5052135;28;20520;-69
2021/12/06 11:06:08;;;;;;;15.07;10.60;;;;;;;10.30;64.04;93975.91;5052194;28;20431;-68
2021/12/06 11:08:38;;;;;;;14.93;10.47;;;;;;;10.47;63.97;93984.91;5052087;28;20441;-69
2021/12/06 11:11:11;;;;;;;12.43;9.97;;;;;;;10.53;62.93;93988.28;5052158;28;20430;-68
2021/12/06 11:13:45;;;;;;;15.43;10.13;;;;;;;10.59;62.77;94002.88;5051450;28;20493;-68
2021/12/06 11:16:24;;;;;;;13.90;10.20;;;;;;;10.56;63.14;93996.34;5052148;28;20474;-69
2021/12/06 11:18:55;;;;;;;16.13;10.63;;;;;;;10.62;62.67;93984.75;5051542;28;20534;-67
2021/12/06 11:21:31;;;;;;;13.87;9.77;;;;;;;10.23;63.95;93985.91;5052218;28;20820;-68
2021/12/06 11:24:03;;;;;;;16.20;10.87;;;;;;;10.57;63.25;93982.19;5051290;28;20449;-68
2021/12/06 11:26:32;;;;;;;15.47;10.70;;;;;;;10.28;63.77;93973.56;5051566;28;20518;-68
2021/12/06 11:29:06;;;;;;;15.53;10.60;;;;;;;10.36;63.64;93998.38;5051020;28;20431;-69
2021/12/06 11:31:33;;;;;;;12.93;9.67;;;;;;;10.34;63.27;93982.94;5051998;28;20431;-68
2021/12/06 11:34:04;;;;;;;19.80;11.77;;;;;;;10.49;62.44;93964.44;5051189;28;20870;-67
2021/12/06 11:36:32;;;;;;;15.67;10.10;;;;;;;10.15;64.00;93980.22;5051627;28;20478;-68
2021/12/06 11:39:06;;;;;;;15.17;10.40;;;;;;;10.45;63.16;93979.19;5051150;28;20831;-69
2021/12/06 11:41:33;;;;;;;15.20;10.93;;;;;;;10.58;61.99;93977.75;5051724;28;20520;-67
2021/12/06 11:44:17;;;;;;;14.60;10.53;;;;;;;10.50;63.00;93962.63;5050970;28;20525;-68
2021/12/06 11:46:45;;;;;;;15.23;10.87;;;;;;;10.54;62.45;93967.03;5051658;28;20446;-67